Aérodrome :
LOGIN :

S'inscrire | Disclaimer

   EN    FR    IT 

 










Légende :    VFR   VFR Marginal   IFR   IFR Intensif   IFR Très Intensif
Visi : 
Plafond : 
>= 8 km
>= 3000ft
5 à 8 km
1000 à 3000 ft
1500m à 5 km
500 à 1000 ft
800 à 1500m
200 à 500 ft
< 800m
< 200 ft
Symboles :   Orages  Brouillard  Fortes neiges  Fortes précipitations  Vent > 20 kt
SIGMETs :   Divers  Orages  Givrage  Turbulence  Onde Orograph.  Cendres Volcan.






- Altitude de l'aérodrome : 84 ft


LFBC - Cazaux

DERNIER METAR :
  • 131500Z AUTO VRB06KT CAVOK 24/11 Q1013

METARs EXPIRÉS :
  • 131430Z AUTO VRB03KT 9999 BKN049 24/12 Q1014
  • 131400Z AUTO 09005KT 020V170 CAVOK 24/12 Q1014
  • 131330Z AUTO 10005KT 090V170 CAVOK 24/11 Q1014
  • 131300Z AUTO 05007KT 360V090 9999 BKN047 BKN098 23/11 Q1014
  • 131230Z AUTO VRB05KT 9999 FEW045 SCT100 23/12 Q1015
  • 131200Z AUTO 09006KT 040V150 9999 FEW044 BKN054 22/11 Q1015
  • 131130Z AUTO 06006KT 020V110 9999 FEW044 22/11 Q1015
  • 131100Z AUTO 02007KT 340V070 9999 FEW045 20/12 Q1015
  • 131030Z AUTO 36006KT 9999 BKN036 BKN047 21/12 Q1015

Prévision TAF périmée.



MET'MAP, la Météo Aéronautique d'un coup d'oeil ! - Copyright ORBIFLY Décembre 2007 - Disclaimer

ORBIFLY MET'MAP TEAM :

Programmation & Développement : Alexandra Zaïnal
Sur une idée originale de : Baudouin d'Aumeries
Soutien technique & logistique : Manuel Goepfert
Assistance : Marc-Olivier Méhu




SOURCES & CREDITS :

   NOAA